Time;durP1;ratioP1;P1;durP2;ratioP2;P2;SDS_P1;SDS_P2;PMS_P1;PMS_P2;Temp;Humidity;BMP_temperature;BMP_pressure;BME280_temperature;BME280_humidity;BME280_pressure;Samples;Min_cycle;Max_cycle;Signal;HPM_P1;HPM_P2
2024/03/02 00:00:43;;;;;;;42.72;20.63;;;;;;;8.17;100.00;99758.47;5089199;28;20027;-76
2024/03/02 00:03:14;;;;;;;37.83;19.73;;;;;;;8.22;100.00;99751.50;5089472;28;20028;-76
2024/03/02 00:05:39;;;;;;;36.78;20.25;;;;;;;8.44;100.00;99738.75;5070502;28;20032;-77
2024/03/02 00:08:06;;;;;;;38.70;20.33;;;;;;;8.08;100.00;99717.25;5089587;28;20035;-77
2024/03/02 00:10:36;;;;;;;36.83;20.40;;;;;;;8.31;100.00;99744.09;5088767;28;20399;-77
2024/03/02 00:13:02;;;;;;;40.05;20.67;;;;;;;8.36;100.00;99730.19;5088707;28;20035;-77
2024/03/02 00:15:30;;;;;;;36.70;18.73;;;;;;;8.58;100.00;99746.66;5088520;28;20031;-77
2024/03/02 00:17:56;;;;;;;33.10;18.65;;;;;;;8.48;100.00;99735.66;5088984;28;20031;-77
2024/03/02 00:20:23;;;;;;;34.60;19.88;;;;;;;8.48;100.00;99717.91;5088515;28;20051;-77
2024/03/02 00:22:51;;;;;;;36.10;19.70;;;;;;;8.51;100.00;99717.47;5088943;28;20024;-76
2024/03/02 00:25:17;;;;;;;;;;;;;;;8.49;100.00;99740.78;5089566;28;20034;-76
2024/03/02 00:27:47;;;;;;;34.72;18.75;;;;;;;8.33;100.00;99720.00;5070878;28;19920;-77
2024/03/02 00:30:50;;;;;;;40.50;19.27;;;;;;;8.61;100.00;99738.25;5088337;28;20028;-76
2024/03/02 00:33:16;;;;;;;40.03;19.73;;;;;;;8.30;100.00;99715.91;5077901;28;20868;-77
2024/03/02 00:35:44;;;;;;;36.78;19.55;;;;;;;8.28;100.00;99719.81;5088796;28;20024;-76
2024/03/02 00:38:10;;;;;;;35.78;18.95;;;;;;;8.09;100.00;99724.19;5089276;28;20034;-77
2024/03/02 00:40:35;;;;;;;36.67;18.58;;;;;;;8.01;100.00;99693.38;5070868;28;20032;-78
2024/03/02 00:43:03;;;;;;;37.97;21.00;;;;;;;8.15;100.00;99716.22;5088922;28;20736;-77
2024/03/02 00:45:28;;;;;;;38.55;20.58;;;;;;;8.12;100.00;99697.22;5089344;28;20059;-77
2024/03/02 00:47:54;;;;;;;38.45;19.00;;;;;;;8.02;100.00;99703.78;5089336;28;20075;-77
2024/03/02 00:50:19;;;;;;;41.13;21.15;;;;;;;8.36;100.00;99703.63;5095633;28;20822;-77
2024/03/02 00:52:48;;;;;;;37.90;19.85;;;;;;;8.36;100.00;99687.69;5098873;28;20032;-77
2024/03/02 00:55:14;;;;;;;42.60;20.15;;;;;;;8.52;100.00;99718.25;5098123;28;20020;-77
2024/03/02 00:57:39;;;;;;;39.22;19.85;;;;;;;8.15;100.00;99696.78;5098729;28;20058;-78
2024/03/02 01:00:09;;;;;;;39.63;18.73;;;;;;;8.44;100.00;99728.13;5098700;28;20047;-77
2024/03/02 01:02:35;;;;;;;42.40;20.73;;;;;;;8.49;100.00;99724.84;5098531;28;20335;-77
2024/03/02 01:05:00;;;;;;;38.95;20.30;;;;;;;8.48;100.00;99722.38;5098392;28;20034;-76
2024/03/02 01:07:26;;;;;;;35.63;19.70;;;;;;;8.09;100.00;99694.97;5100464;28;20111;-77
2024/03/02 01:09:51;;;;;;;34.40;16.98;;;;;;;8.42;100.00;99721.41;5095018;28;20024;-78
2024/03/02 01:12:17;;;;;;;32.17;17.88;;;;;;;8.49;100.00;99714.19;5076001;28;20039;-77
2024/03/02 01:14:42;;;;;;;35.63;19.40;;;;;;;8.29;100.00;99708.16;5076294;28;20397;-78
2024/03/02 01:17:07;;;;;;;39.22;18.95;;;;;;;8.29;100.00;99701.00;5076116;28;20028;-77
2024/03/02 01:19:33;;;;;;;35.20;18.75;;;;;;;8.34;100.00;99698.53;5094120;28;20024;-78
2024/03/02 01:21:59;;;;;;;32.63;18.90;;;;;;;8.16;100.00;99677.16;5093918;28;20083;-76
2024/03/02 01:24:24;;;;;;;35.35;19.33;;;;;;;8.35;100.00;99704.66;5093084;28;20451;-78
2024/03/02 01:26:50;;;;;;;37.13;19.55;;;;;;;8.33;100.00;99688.91;5092834;28;20059;-78
2024/03/02 01:29:16;;;;;;;36.42;18.55;;;;;;;8.15;100.00;99683.50;5091817;28;20031;-76
2024/03/02 01:31:42;;;;;;;36.20;19.85;;;;;;;8.25;100.00;99678.53;5090927;28;20036;-76
2024/03/02 01:34:08;;;;;;;41.05;19.73;;;;;;;8.17;100.00;99694.72;5089792;28;20028;-76
2024/03/02 01:36:34;;;;;;;45.97;22.05;;;;;;;8.17;100.00;99684.09;5088904;28;20044;-76
2024/03/02 01:38:59;;;;;;;40.47;19.52;;;;;;;8.02;100.00;99681.72;5088849;28;20031;-76
2024/03/02 01:41:25;;;;;;;44.50;20.95;;;;;;;8.03;100.00;99678.06;5069498;28;20077;-77
2024/03/02 01:43:51;;;;;;;36.50;18.88;;;;;;;7.96;100.00;99675.41;5088105;28;20563;-78
2024/03/02 01:46:16;;;;;;;39.38;18.73;;;;;;;8.16;100.00;99677.16;5069827;28;20195;-76
2024/03/02 01:48:42;;;;;;;37.38;19.02;;;;;;;8.20;100.00;99689.00;5087728;28;20032;-75
2024/03/02 01:51:07;;;;;;;38.53;19.58;;;;;;;8.20;100.00;99683.69;5087858;28;20034;-76
2024/03/02 01:53:34;;;;;;;41.38;19.20;;;;;;;8.17;100.00;99674.31;5069077;28;20035;-76
2024/03/02 01:56:01;;;;;;;37.80;19.17;;;;;;;8.25;100.00;99681.19;5087151;28;20020;-76
2024/03/02 01:58:26;;;;;;;36.53;18.55;;;;;;;8.14;100.00;99657.97;5087538;28;20032;-76
2024/03/02 02:00:52;;;;;;;38.95;19.27;;;;;;;8.21;100.00;99674.69;5086738;28;20027;-77
2024/03/02 02:03:17;;;;;;;36.33;19.15;;;;;;;8.17;100.00;99684.94;5087105;28;20460;-77
2024/03/02 02:05:43;;;;;;;39.63;19.55;;;;;;;8.10;100.00;99667.41;5086896;28;20039;-76
2024/03/02 02:08:08;;;;;;;35.40;18.58;;;;;;;8.22;100.00;99671.00;5068642;28;20040;-76
2024/03/02 02:10:34;;;;;;;37.35;18.05;;;;;;;8.26;100.00;99661.59;5087100;28;20043;-77
2024/03/02 02:13:00;;;;;;;41.85;18.73;;;;;;;8.39;100.00;99671.31;5086344;28;20035;-76
2024/03/02 02:15:30;;;;;;;35.72;17.75;;;;;;;8.26;100.00;99658.94;5068654;28;20027;-78
2024/03/02 02:17:57;;;;;;;34.03;18.30;;;;;;;8.38;100.00;99653.75;5086613;28;20553;-77
2024/03/02 02:20:23;;;;;;;35.15;17.98;;;;;;;8.42;100.00;99677.03;5086722;28;20020;-77
2024/03/02 02:22:58;;;;;;;37.08;19.75;;;;;;;8.08;100.00;99648.19;5085917;28;20035;-76
2024/03/02 02:25:23;;;;;;;36.33;18.80;;;;;;;8.45;100.00;99665.97;5086189;28;20039;-76
2024/03/02 02:27:49;;;;;;;36.80;18.83;;;;;;;8.52;100.00;99670.44;5068093;28;20048;-77
2024/03/02 02:30:19;;;;;;;39.40;20.35;;;;;;;8.50;100.00;99669.84;5086811;28;20952;-77
2024/03/02 02:32:44;;;;;;;38.75;19.13;;;;;;;8.47;100.00;99652.47;5086257;28;20047;-77
2024/03/02 02:35:10;;;;;;;40.75;19.63;;;;;;;8.16;100.00;99638.13;5086197;28;20024;-76
2024/03/02 02:37:35;;;;;;;35.97;19.65;;;;;;;8.31;100.00;99637.84;5085896;28;20107;-77
2024/03/02 02:40:01;;;;;;;43.13;20.52;;;;;;;8.18;100.00;99652.03;5086503;28;20024;-77
2024/03/02 02:42:26;;;;;;;39.28;19.35;;;;;;;8.32;100.00;99639.47;5085997;28;20035;-76
2024/03/02 02:44:51;;;;;;;36.38;18.58;;;;;;;8.23;100.00;99649.56;5086300;28;20032;-77
2024/03/02 02:47:17;;;;;;;38.22;18.75;;;;;;;8.22;100.00;99628.50;5067999;28;20361;-76
2024/03/02 02:49:42;;;;;;;38.30;17.90;;;;;;;8.70;100.00;99659.88;5068463;28;20074;-77
2024/03/02 02:52:07;;;;;;;37.78;18.15;;;;;;;8.60;100.00;99646.25;5087660;28;20107;-77
2024/03/02 02:54:33;;;;;;;40.95;19.08;;;;;;;8.42;100.00;99671.72;5090287;28;20386;-76
2024/03/02 02:56:59;;;;;;;33.83;16.95;;;;;;;8.04;100.00;99653.91;5090609;28;20032;-76
2024/03/02 02:59:24;;;;;;;33.40;18.13;;;;;;;7.98;100.00;99676.00;5090462;28;20417;-76
2024/03/02 03:01:51;;;;;;;35.63;16.23;;;;;;;8.02;100.00;99669.25;5090166;28;20028;-75
2024/03/02 03:04:18;;;;;;;32.33;17.02;;;;;;;8.14;100.00;99650.00;5090296;28;20035;-76
2024/03/02 03:06:44;;;;;;;35.88;17.13;;;;;;;8.00;100.00;99642.09;5071627;28;20028;-77
2024/03/02 03:09:11;;;;;;;36.90;17.90;;;;;;;7.87;100.00;99634.22;5090078;28;20195;-75
2024/03/02 03:11:36;;;;;;;36.25;17.77;;;;;;;7.80;100.00;99628.09;5090304;28;20024;-78
2024/03/02 03:14:02;;;;;;;35.17;19.08;;;;;;;7.80;100.00;99625.44;5071574;28;20408;-77
2024/03/02 03:16:27;;;;;;;32.97;16.45;;;;;;;8.04;100.00;99653.91;5089965;28;20243;-77
2024/03/02 03:18:53;;;;;;;35.08;18.35;;;;;;;8.15;100.00;99656.94;5089620;28;20024;-76
2024/03/02 03:21:18;;;;;;;35.75;17.45;;;;;;;8.02;100.00;99655.97;5090269;28;20441;-76
2024/03/02 03:23:44;;;;;;;29.77;16.40;;;;;;;7.96;100.00;99653.38;5089341;28;20024;-76
2024/03/02 03:26:09;;;;;;;33.25;18.70;;;;;;;7.92;100.00;99647.66;5089784;28;20063;-75
2024/03/02 03:28:35;;;;;;;37.22;17.85;;;;;;;8.09;100.00;99665.75;5089486;28;20417;-77
2024/03/02 03:31:00;;;;;;;38.67;17.75;;;;;;;8.25;100.00;99670.56;5089970;28;20036;-76
2024/03/02 03:33:25;;;;;;;37.33;18.33;;;;;;;8.04;100.00;99669.84;5089561;28;20097;-77
2024/03/02 03:35:51;;;;;;;44.20;19.85;;;;;;;7.68;100.00;99627.94;5089444;28;20034;-75
2024/03/02 03:38:16;;;;;;;46.25;22.60;;;;;;;7.93;100.00;99661.78;5089589;28;20047;-77
2024/03/02 03:40:42;;;;;;;63.95;31.52;;;;;;;8.07;100.00;99665.16;5089888;28;20036;-77
2024/03/02 03:43:07;;;;;;;51.72;28.80;;;;;;;8.12;100.00;99657.38;5089256;28;20035;-77
2024/03/02 03:45:33;;;;;;;63.95;38.88;;;;;;;8.28;100.00;99664.84;5089634;28;20481;-77
2024/03/02 03:47:58;;;;;;;82.05;44.63;;;;;;;8.07;100.00;99643.91;5071264;28;20028;-77
2024/03/02 03:50:23;;;;;;;224.35;109.22;;;;;;;7.99;100.00;99639.69;5089891;28;20147;-76
2024/03/02 03:52:49;;;;;;;548.05;333.50;;;;;;;8.09;100.00;99652.47;5089179;28;20032;-78
2024/03/02 03:55:14;;;;;;;80.18;44.28;;;;;;;8.15;100.00;99655.13;5089048;28;20051;-76
2024/03/02 03:57:40;;;;;;;46.83;25.45;;;;;;;8.10;100.00;99646.16;5070836;28;20020;-75
2024/03/02 04:00:06;;;;;;;50.22;25.92;;;;;;;7.84;100.00;99621.34;5088961;28;20749;-77
2024/03/02 04:02:32;;;;;;;48.13;22.95;;;;;;;7.80;100.00;99649.34;5089158;28;20100;-76
2024/03/02 04:04:57;;;;;;;89.95;50.03;;;;;;;7.90;100.00;99646.25;5088259;28;20093;-76
2024/03/02 04:07:22;;;;;;;51.85;29.42;;;;;;;8.10;100.00;99660.22;5088939;28;20484;-77
2024/03/02 04:09:48;;;;;;;48.45;24.70;;;;;;;8.14;100.00;99665.94;5070835;28;20044;-77
2024/03/02 04:12:13;;;;;;;45.97;22.20;;;;;;;8.10;100.00;99656.78;5088858;28;20020;-75
2024/03/02 04:14:38;;;;;;;47.90;25.42;;;;;;;8.04;100.00;99637.19;5088624;28;20054;-77
2024/03/02 04:17:04;;;;;;;46.90;23.50;;;;;;;8.27;100.00;99662.38;5088955;28;20631;-76
2024/03/02 04:19:29;;;;;;;39.30;19.92;;;;;;;8.24;100.00;99659.13;5089224;28;20043;-76
2024/03/02 04:21:55;;;;;;;47.47;19.98;;;;;;;8.24;100.00;99656.47;5070693;28;20020;-76
2024/03/02 04:24:20;;;;;;;49.90;25.00;;;;;;;8.18;100.00;99651.22;5088584;28;20024;-76
2024/03/02 04:26:46;;;;;;;46.53;21.95;;;;;;;8.03;100.00;99615.13;5088811;28;20020;-77
2024/03/02 04:29:11;;;;;;;41.65;21.23;;;;;;;8.13;100.00;99656.34;5088820;28;20020;-77
2024/03/02 04:31:36;;;;;;;50.58;24.63;;;;;;;8.11;100.00;99653.06;5088507;28;20427;-77
2024/03/02 04:34:02;;;;;;;46.15;24.15;;;;;;;8.00;100.00;99660.69;5088441;28;20028;-76
2024/03/02 04:36:27;;;;;;;40.88;20.60;;;;;;;8.04;100.00;99653.13;5070259;28;20109;-77
2024/03/02 04:38:52;;;;;;;43.45;18.60;;;;;;;8.02;100.00;99655.97;5087960;28;20031;-76
2024/03/02 04:41:18;;;;;;;40.67;20.10;;;;;;;7.63;100.00;99641.84;5088518;28;20119;-76
2024/03/02 04:43:43;;;;;;;45.83;22.08;;;;;;;7.99;100.00;99667.03;5070176;28;20027;-77
2024/03/02 04:46:09;;;;;;;41.20;18.30;;;;;;;7.94;100.00;99653.56;5087826;28;20059;-77
2024/03/02 04:48:34;;;;;;;40.38;20.55;;;;;;;7.97;100.00;99655.00;5088184;28;20413;-76
2024/03/02 04:51:00;;;;;;;40.80;19.30;;;;;;;8.08;100.00;99680.06;5088023;28;20055;-76
2024/03/02 04:53:25;;;;;;;41.75;20.23;;;;;;;7.96;100.00;99678.06;5088193;28;20512;-78
2024/03/02 04:58:34;;;;;;;40.05;20.15;;;;;;;7.92;100.00;99671.53;5088119;28;20401;-76
2024/03/02 05:00:59;;;;;;;43.72;20.58;;;;;;;7.99;100.00;99667.03;5088044;28;20477;-77
2024/03/02 05:03:25;;;;;;;47.53;21.00;;;;;;;8.21;100.00;99680.00;5088169;28;20124;-76
2024/03/02 05:05:50;;;;;;;46.45;20.75;;;;;;;8.01;100.00;99675.59;5069875;28;20054;-76
2024/03/02 05:08:16;;;;;;;43.75;21.20;;;;;;;7.95;100.00;99694.22;5087543;28;20496;-75
2024/03/02 05:10:42;;;;;;;46.65;21.77;;;;;;;8.09;100.00;99687.00;5087493;28;20485;-77
2024/03/02 05:13:07;;;;;;;46.00;19.95;;;;;;;7.89;100.00;99677.28;5087625;28;20031;-77
2024/03/02 05:15:33;;;;;;;47.40;23.50;;;;;;;8.13;100.00;99693.50;5069364;28;20051;-77
2024/03/02 05:17:59;;;;;;;42.60;20.60;;;;;;;8.19;100.00;99682.88;5087461;28;20489;-77
2024/03/02 05:20:24;;;;;;;48.65;24.02;;;;;;;8.07;100.00;99678.44;5087721;28;20084;-76
2024/03/02 05:22:50;;;;;;;59.03;33.40;;;;;;;8.03;100.00;99652.31;5087230;28;20028;-76
2024/03/02 05:25:15;;;;;;;51.00;25.58;;;;;;;8.12;100.00;99665.34;5077997;28;20051;-76
2024/03/02 05:27:41;;;;;;;42.55;20.30;;;;;;;8.08;100.00;99658.81;5086887;28;20052;-76
2024/03/02 05:30:07;;;;;;;53.42;25.83;;;;;;;8.20;100.00;99642.00;5087334;28;20027;-76
2024/03/02 05:32:33;;;;;;;55.72;35.80;;;;;;;8.14;100.00;99669.41;5087852;28;20408;-77
2024/03/02 05:34:59;;;;;;;36.58;19.98;;;;;;;8.05;100.00;99676.00;5068806;28;20016;-77
2024/03/02 05:37:24;;;;;;;42.30;17.83;;;;;;;8.35;100.00;99700.13;5086888;28;20144;-76
2024/03/02 05:39:49;;;;;;;43.38;20.77;;;;;;;8.30;100.00;99683.22;5086833;28;20346;-76
2024/03/02 05:42:16;;;;;;;49.85;30.30;;;;;;;8.37;100.00;99668.84;5087137;28;20592;-78
2024/03/02 05:44:42;;;;;;;39.50;21.40;;;;;;;8.49;100.00;99666.38;5086763;28;20043;-77
2024/03/02 05:47:08;;;;;;;38.63;19.08;;;;;;;8.33;100.00;99649.06;5086801;28;20036;-76
2024/03/02 05:49:34;;;;;;;45.90;22.98;;;;;;;8.31;100.00;99648.47;5086633;28;20057;-77
2024/03/02 05:51:59;;;;;;;43.75;20.55;;;;;;;8.20;100.00;99642.00;5086687;28;20059;-77
2024/03/02 05:54:25;;;;;;;45.03;21.55;;;;;;;8.42;100.00;99650.47;5086420;28;20032;-77
2024/03/02 05:56:50;;;;;;;41.15;19.30;;;;;;;8.28;100.00;99659.53;5086316;28;20937;-77
2024/03/02 05:59:16;;;;;;;47.22;19.70;;;;;;;8.32;100.00;99697.13;5085823;28;20032;-77
2024/03/02 06:01:43;;;;;;;51.25;24.80;;;;;;;8.59;100.00;99692.47;5086388;28;20028;-77
2024/03/02 06:04:13;;;;;;;45.85;20.83;;;;;;;8.37;100.00;99703.41;5086574;28;20034;-76
2024/03/02 06:06:41;;;;;;;71.22;40.10;;;;;;;8.40;100.00;99703.00;5065875;28;20038;-77
2024/03/02 06:09:12;;;;;;;;;;;;;;;8.35;100.00;99696.69;5086967;28;20107;-77
2024/03/02 06:11:39;;;;;;;61.58;34.65;;;;;;;8.38;100.00;99686.44;5084255;28;19935;-77
2024/03/02 06:14:06;;;;;;;47.13;25.27;;;;;;;8.47;100.00;99697.66;5086469;28;20523;-76
2024/03/02 06:16:32;;;;;;;60.10;31.63;;;;;;;8.30;100.00;99692.00;5086901;28;20036;-77
2024/03/02 06:18:58;;;;;;;72.25;40.10;;;;;;;8.57;100.00;99689.22;5067898;28;20046;-77
2024/03/02 06:21:24;;;;;;;91.55;52.47;;;;;;;8.72;100.00;99695.03;5068703;28;20024;-77
2024/03/02 06:23:49;;;;;;;51.47;24.17;;;;;;;8.33;100.00;99704.84;5086394;28;20036;-77
2024/03/02 06:26:15;;;;;;;51.70;22.55;;;;;;;8.38;100.00;99721.00;5067838;28;20035;-76
2024/03/02 06:28:40;;;;;;;60.25;34.83;;;;;;;8.27;100.00;99699.59;5085751;28;20509;-77
2024/03/02 06:31:06;;;;;;;51.53;26.80;;;;;;;8.17;100.00;99715.97;5086728;28;20032;-77
2024/03/02 06:33:31;;;;;;;49.88;25.25;;;;;;;8.29;100.00;99701.00;5086130;28;20024;-77
2024/03/02 06:35:56;;;;;;;55.90;33.17;;;;;;;8.25;100.00;99697.13;5086082;28;20024;-78
2024/03/02 06:38:22;;;;;;;65.18;30.83;;;;;;;8.09;100.00;99702.94;5085640;28;20047;-77
2024/03/02 06:40:47;;;;;;;46.45;22.73;;;;;;;8.04;100.00;99675.16;5086022;28;20020;-78
2024/03/02 06:43:13;;;;;;;53.05;24.73;;;;;;;8.35;100.00;99717.94;5086102;28;20524;-77
2024/03/02 06:45:38;;;;;;;51.55;25.95;;;;;;;8.13;100.00;99696.16;5067641;28;20050;-78
2024/03/02 06:48:04;;;;;;;48.95;23.30;;;;;;;8.03;100.00;99689.50;5067720;28;20485;-79
2024/03/02 06:50:29;;;;;;;95.55;52.75;;;;;;;8.25;100.00;99686.50;5085815;28;20357;-77
2024/03/02 06:52:55;;;;;;;64.07;35.65;;;;;;;8.53;100.00;99682.69;5085846;28;20055;-77
2024/03/02 06:55:21;;;;;;;78.28;42.70;;;;;;;8.67;100.00;99672.81;5085414;28;20508;-78
2024/03/02 06:57:47;;;;;;;69.50;33.78;;;;;;;8.49;100.00;99686.81;5085412;28;20587;-77
2024/03/02 07:00:13;;;;;;;136.77;67.40;;;;;;;8.34;100.00;99671.16;5085909;28;20023;-77
2024/03/02 07:02:41;;;;;;;222.80;98.65;;;;;;;8.38;100.00;99685.63;5075538;28;20032;-77
2024/03/02 07:05:08;;;;;;;37.53;18.17;;;;;;;8.31;100.00;99693.63;5077042;28;20016;-78
2024/03/02 07:07:34;;;;;;;48.45;24.85;;;;;;;8.30;100.00;99676.06;5073427;28;20111;-78
2024/03/02 07:10:00;;;;;;;46.75;20.48;;;;;;;8.20;100.00;99695.13;5085899;28;20090;-78
2024/03/02 07:12:25;;;;;;;42.78;20.20;;;;;;;8.14;100.00;99703.94;5086240;28;20036;-77
2024/03/02 07:15:24;;;;;;;51.22;23.27;;;;;;;8.12;100.00;99702.53;5085917;28;20031;-78
2024/03/02 07:17:37;;;;;;;54.35;27.92;;;;;;;8.03;100.00;99724.00;5085714;28;20097;-77
2024/03/02 07:20:03;;;;;;;54.50;29.02;;;;;;;8.14;100.00;99738.47;5086323;28;20040;-78
2024/03/02 07:22:29;;;;;;;48.08;21.42;;;;;;;8.07;100.00;99700.50;5086095;28;20177;-77
2024/03/02 07:24:54;;;;;;;42.08;20.33;;;;;;;8.29;100.00;99735.53;5067975;28;20454;-78
2024/03/02 07:27:19;;;;;;;50.53;28.90;;;;;;;8.18;100.00;99714.97;5085589;28;20048;-78
2024/03/02 07:29:45;;;;;;;42.08;18.60;;;;;;;8.05;100.00;99703.38;5085516;28;20031;-76
2024/03/02 07:32:10;;;;;;;37.20;18.38;;;;;;;8.39;100.00;99713.81;5085403;28;20028;-76
2024/03/02 07:34:37;;;;;;;44.75;21.50;;;;;;;8.33;100.00;99706.69;5073018;28;20017;-77
2024/03/02 07:37:03;;;;;;;61.92;28.98;;;;;;;8.49;100.00;99700.09;5069796;28;20084;-76
2024/03/02 07:39:29;;;;;;;47.28;24.05;;;;;;;8.45;100.00;99700.53;5087308;28;20028;-77
2024/03/02 07:41:55;;;;;;;46.17;26.17;;;;;;;8.38;100.00;99701.56;5090017;28;20058;-76
2024/03/02 07:44:20;;;;;;;46.92;24.73;;;;;;;8.66;100.00;99706.53;5089376;28;20405;-76
2024/03/02 07:46:47;;;;;;;52.20;25.45;;;;;;;8.78;100.00;99691.50;5071330;28;20028;-75
2024/03/02 07:49:14;;;;;;;60.45;31.38;;;;;;;8.80;100.00;99720.53;5089196;28;20075;-79
2024/03/02 07:51:39;;;;;;;103.70;56.15;;;;;;;8.80;100.00;99721.34;5071393;28;20496;-75
2024/03/02 07:54:04;;;;;;;49.20;26.55;;;;;;;8.62;100.00;99686.72;5089401;28;20020;-77
2024/03/02 07:56:30;;;;;;;39.30;21.50;;;;;;;8.81;100.00;99715.00;5089106;28;20031;-78
2024/03/02 07:59:00;;;;;;;41.72;18.42;;;;;;;8.85;100.00;99720.72;5089460;28;20445;-76
2024/03/02 08:01:26;;;;;;;38.40;19.77;;;;;;;9.01;100.00;99714.88;5071250;28;20032;-77
2024/03/02 08:03:52;;;;;;;34.63;18.10;;;;;;;9.07;100.00;99705.19;5068589;28;20041;-77
2024/03/02 08:06:20;;;;;;;34.55;18.50;;;;;;;9.29;100.00;99712.78;5077553;28;20024;-76
2024/03/02 08:08:45;;;;;;;35.65;17.83;;;;;;;9.17;100.00;99721.47;5082449;28;20081;-77
2024/03/02 08:11:11;;;;;;;35.35;19.05;;;;;;;8.79;100.00;99682.50;5088920;28;20036;-75
2024/03/02 08:13:36;;;;;;;40.22;18.25;;;;;;;9.11;100.00;99721.53;5085767;28;20020;-77
2024/03/02 08:16:03;;;;;;;35.55;18.42;;;;;;;9.14;100.00;99727.25;5080294;28;20036;-77
2024/03/02 08:18:28;;;;;;;40.85;19.90;;;;;;;9.27;100.00;99720.16;5087283;28;20036;-76
2024/03/02 08:20:54;;;;;;;37.90;19.15;;;;;;;9.22;100.00;99734.13;5076099;28;20031;-76
2024/03/02 08:23:19;;;;;;;41.78;18.10;;;;;;;9.28;100.00;99724.47;5088317;28;20020;-77
2024/03/02 08:25:45;;;;;;;35.65;18.42;;;;;;;9.43;100.00;99724.94;5088158;28;20046;-77
2024/03/02 08:28:10;;;;;;;40.50;18.70;;;;;;;9.22;100.00;99695.03;5088460;28;20036;-78
2024/03/02 08:30:36;;;;;;;39.60;19.35;;;;;;;9.62;100.00;99713.28;5088600;28;20047;-77
2024/03/02 08:33:01;;;;;;;38.28;21.65;;;;;;;9.56;100.00;99692.88;5085240;28;20118;-77
2024/03/02 08:35:27;;;;;;;50.60;29.80;;;;;;;9.22;100.00;99697.69;5088336;28;20039;-78
2024/03/02 08:37:53;;;;;;;40.70;22.20;;;;;;;9.51;100.00;99722.00;5088591;28;20032;-76
2024/03/02 08:40:18;;;;;;;56.88;48.03;;;;;;;9.58;100.00;99696.13;5087940;28;20481;-77
2024/03/02 08:42:45;;;;;;;42.78;30.85;;;;;;;9.54;100.00;99716.25;5088522;28;20056;-77
2024/03/02 08:45:10;;;;;;;34.25;19.55;;;;;;;9.59;100.00;99723.56;5088139;28;20110;-78
2024/03/02 08:47:36;;;;;;;36.53;19.95;;;;;;;9.35;100.00;99715.38;5088590;28;20046;-78
2024/03/02 08:50:01;;;;;;;52.30;32.13;;;;;;;9.73;100.00;99721.56;5087791;28;20119;-77
2024/03/02 08:52:27;;;;;;;59.85;37.80;;;;;;;9.65;100.00;99707.50;5088666;28;20040;-76
2024/03/02 08:54:52;;;;;;;46.83;27.58;;;;;;;9.67;100.00;99696.63;5103742;28;20047;-76
2024/03/02 08:57:17;;;;;;;50.28;27.38;;;;;;;9.83;100.00;99705.88;5069600;28;20101;-77
2024/03/02 08:59:43;;;;;;;55.20;36.65;;;;;;;10.03;100.00;99730.44;5087451;28;20024;-78
2024/03/02 09:02:09;;;;;;;46.88;26.55;;;;;;;9.69;100.00;99717.72;5087711;28;20020;-77
2024/03/02 09:04:35;;;;;;;45.15;27.33;;;;;;;9.77;100.00;99714.78;5087748;28;20037;-78
2024/03/02 09:07:00;;;;;;;57.40;30.45;;;;;;;9.55;100.00;99733.81;5087459;28;20114;-78
2024/03/02 09:09:25;;;;;;;45.22;28.23;;;;;;;9.55;100.00;99717.84;5069797;28;20028;-77
2024/03/02 09:11:51;;;;;;;111.22;63.42;;;;;;;9.56;100.00;99730.16;5069888;28;20057;-76
2024/03/02 09:14:16;;;;;;;59.47;32.70;;;;;;;9.32;100.00;99729.13;5087578;28;20016;-77
2024/03/02 09:16:42;;;;;;;80.50;39.65;;;;;;;9.39;100.00;99721.88;5087374;28;20044;-76
2024/03/02 09:19:09;;;;;;;42.38;22.73;;;;;;;9.25;100.00;99707.91;5086517;28;20024;-75
2024/03/02 09:21:34;;;;;;;43.28;22.27;;;;;;;9.33;100.00;99709.47;5087556;28;20035;-76
2024/03/02 09:24:02;;;;;;;50.28;25.60;;;;;;;9.77;100.00;99736.06;5069523;28;20032;-76
2024/03/02 09:26:27;;;;;;;49.93;25.53;;;;;;;9.83;100.00;99725.34;5087807;28;20024;-75
2024/03/02 09:28:53;;;;;;;43.67;26.08;;;;;;;10.05;100.00;99716.88;5087077;28;20773;-76
2024/03/02 09:31:18;;;;;;;43.90;25.65;;;;;;;10.01;100.00;99727.19;5086824;28;20038;-77
2024/03/02 09:33:43;;;;;;;47.58;30.10;;;;;;;9.91;100.00;99734.88;5086018;28;20028;-76
2024/03/02 09:36:22;;;;;;;43.58;25.50;;;;;;;9.92;100.00;99715.19;5085829;28;20032;-75
2024/03/02 09:38:47;;;;;;;44.20;23.20;;;;;;;9.93;100.00;99714.16;5085134;28;20035;-77
2024/03/02 09:41:14;;;;;;;44.15;27.17;;;;;;;10.23;100.00;99740.84;5086088;28;20035;-78
2024/03/02 09:43:40;;;;;;;40.28;23.10;;;;;;;10.02;100.00;99741.31;5067672;28;20111;-77
2024/03/02 09:46:08;;;;;;;44.80;23.45;;;;;;;10.01;100.00;99737.84;5068035;28;20030;-76
2024/03/02 09:48:33;;;;;;;;;;;;;;;10.29;100.00;99741.78;5087794;28;20031;-76
2024/03/02 09:51:01;;;;;;;40.83;23.73;;;;;;;10.23;100.00;99718.72;5087378;28;19923;-76
2024/03/02 09:53:31;;;;;;;37.10;22.52;;;;;;;10.43;100.00;99735.28;5087284;28;20099;-76
2024/03/02 09:55:56;;;;;;;49.05;28.63;;;;;;;10.32;100.00;99728.06;5086845;28;20112;-78
2024/03/02 09:58:22;;;;;;;38.53;24.40;;;;;;;10.19;100.00;99701.53;5086673;28;20039;-76
2024/03/02 10:00:49;;;;;;;66.68;51.38;;;;;;;10.38;100.00;99705.84;5068319;28;20516;-78
2024/03/02 10:03:14;;;;;;;37.40;23.23;;;;;;;10.56;100.00;99706.81;5086463;28;20053;-76
2024/03/02 10:05:40;;;;;;;48.97;31.95;;;;;;;10.71;100.00;99720.53;5086784;28;20035;-76
2024/03/02 10:08:06;;;;;;;40.42;22.17;;;;;;;10.59;100.00;99719.69;5068944;28;20028;-78
2024/03/02 10:10:39;;;;;;;52.05;32.63;;;;;;;10.53;100.00;99696.59;5086458;28;20024;-76
2024/03/02 10:13:10;;;;;;;61.85;39.38;;;;;;;10.45;100.00;99722.53;5086879;28;20047;-77
2024/03/02 10:15:46;;;;;;;41.70;22.63;;;;;;;10.32;100.00;99700.56;5086467;28;20493;-77
2024/03/02 10:18:13;;;;;;;38.65;20.13;;;;;;;10.59;100.00;99719.69;5087021;28;20036;-76
2024/03/02 10:20:39;;;;;;;37.05;19.48;;;;;;;10.72;100.00;99714.16;5086582;28;20032;-78
2024/03/02 10:23:12;;;;;;;39.55;22.35;;;;;;;10.75;100.00;99716.38;5086851;28;20035;-77
2024/03/02 10:25:37;;;;;;;36.72;22.67;;;;;;;10.50;100.00;99678.38;5086918;28;20459;-77
2024/03/02 10:28:05;;;;;;;42.38;22.80;;;;;;;10.75;100.00;99708.38;5086186;28;20055;-77
2024/03/02 10:30:31;;;;;;;34.58;20.88;;;;;;;10.62;100.00;99717.41;5086486;28;20047;-76
2024/03/02 10:32:57;;;;;;;39.00;20.90;;;;;;;10.54;100.00;99706.22;5086719;28;20040;-76
2024/03/02 10:35:25;;;;;;;39.40;21.98;;;;;;;10.89;100.00;99689.47;5086531;28;20024;-77
2024/03/02 10:37:52;;;;;;;40.80;22.40;;;;;;;11.17;100.00;99713.63;5068414;28;20039;-77
2024/03/02 10:40:21;;;;;;;37.90;20.70;;;;;;;11.07;100.00;99708.06;5086346;28;20020;-76
2024/03/02 10:42:47;;;;;;;39.47;21.25;;;;;;;11.18;100.00;99693.13;5086620;28;20036;-77
2024/03/02 10:45:15;;;;;;;39.97;21.50;;;;;;;10.90;100.00;99691.94;5086118;28;20454;-77
2024/03/02 10:47:42;;;;;;;37.72;21.70;;;;;;;11.23;100.00;99695.91;5086308;28;20028;-77
2024/03/02 10:50:08;;;;;;;40.58;21.50;;;;;;;11.19;100.00;99684.84;5068035;28;20032;-78
2024/03/02 10:52:37;;;;;;;41.83;25.38;;;;;;;11.15;100.00;99656.22;5085985;28;20035;-77
2024/03/02 10:55:05;;;;;;;38.90;21.48;;;;;;;11.37;100.00;99691.94;5067988;28;20020;-76
2024/03/02 10:57:53;;;;;;;43.13;23.55;;;;;;;11.44;100.00;99691.81;5086507;28;20394;-77
2024/03/02 11:00:24;;;;;;;46.10;27.10;;;;;;;11.29;100.00;99680.81;5086053;28;20043;-77
2024/03/02 11:02:57;;;;;;;44.63;26.17;;;;;;;11.50;100.00;99685.53;5084053;28;20043;-76
2024/03/02 11:05:28;;;;;;;48.63;29.13;;;;;;;11.55;100.00;99671.50;5085796;28;20029;-77
2024/03/02 11:08:00;;;;;;;38.03;21.45;;;;;;;11.56;100.00;99678.47;5075249;28;20511;-77
2024/03/02 11:10:26;;;;;;;41.35;22.58;;;;;;;11.47;100.00;99664.66;5086116;28;20039;-78
2024/03/02 11:13:01;;;;;;;39.72;21.73;;;;;;;11.63;100.00;99684.50;5087285;28;20039;-77
2024/03/02 11:15:27;;;;;;;38.60;22.60;;;;;;;11.81;100.00;99675.50;5090410;28;20125;-77